sensor_id;sensor_type;location;lat;lon;timestamp;P1;durP1;ratioP1;P2;durP2;ratioP2
18822;SDS011;9540;51.550;7.980;2023-04-25T00:01:07;24.03;;;9.10;;
18822;SDS011;9540;51.550;7.980;2023-04-25T00:03:34;31.17;;;9.60;;
18822;SDS011;9540;51.550;7.980;2023-04-25T00:06:01;21.83;;;8.83;;
18822;SDS011;9540;51.550;7.980;2023-04-25T00:08:30;15.83;;;8.73;;
18822;SDS011;9540;51.550;7.980;2023-04-25T00:10:57;21.20;;;8.63;;
18822;SDS011;9540;51.550;7.980;2023-04-25T00:13:25;23.07;;;8.60;;
18822;SDS011;9540;51.550;7.980;2023-04-25T00:15:52;23.33;;;7.53;;
18822;SDS011;9540;51.550;7.980;2023-04-25T00:18:19;29.33;;;9.47;;
18822;SDS011;9540;51.550;7.980;2023-04-25T00:20:47;24.20;;;8.60;;
18822;SDS011;9540;51.550;7.980;2023-04-25T00:23:14;22.23;;;8.37;;
18822;SDS011;9540;51.550;7.980;2023-04-25T00:25:44;32.80;;;10.23;;
18822;SDS011;9540;51.550;7.980;2023-04-25T00:28:11;26.73;;;9.27;;
18822;SDS011;9540;51.550;7.980;2023-04-25T00:30:39;22.53;;;8.30;;
18822;SDS011;9540;51.550;7.980;2023-04-25T00:33:07;27.20;;;9.13;;
18822;SDS011;9540;51.550;7.980;2023-04-25T00:35:34;23.63;;;8.30;;
18822;SDS011;9540;51.550;7.980;2023-04-25T00:38:01;23.10;;;8.43;;
18822;SDS011;9540;51.550;7.980;2023-04-25T00:40:29;24.10;;;8.30;;
18822;SDS011;9540;51.550;7.980;2023-04-25T00:42:57;26.53;;;9.10;;
18822;SDS011;9540;51.550;7.980;2023-04-25T00:45:25;16.47;;;8.10;;
18822;SDS011;9540;51.550;7.980;2023-04-25T00:47:54;19.53;;;8.10;;
18822;SDS011;9540;51.550;7.980;2023-04-25T00:50:22;22.13;;;8.60;;
18822;SDS011;9540;51.550;7.980;2023-04-25T00:52:49;22.47;;;9.60;;
18822;SDS011;9540;51.550;7.980;2023-04-25T00:55:17;19.13;;;8.53;;
18822;SDS011;9540;51.550;7.980;2023-04-25T00:57:44;16.83;;;7.33;;
18822;SDS011;9540;51.550;7.980;2023-04-25T01:00:13;23.50;;;8.13;;
18822;SDS011;9540;51.550;7.980;2023-04-25T01:02:41;17.30;;;8.77;;
18822;SDS011;9540;51.550;7.980;2023-04-25T01:05:09;18.03;;;8.27;;
18822;SDS011;9540;51.550;7.980;2023-04-25T01:07:37;16.60;;;8.33;;
18822;SDS011;9540;51.550;7.980;2023-04-25T01:10:05;20.93;;;9.17;;
18822;SDS011;9540;51.550;7.980;2023-04-25T01:12:33;20.87;;;8.63;;
18822;SDS011;9540;51.550;7.980;2023-04-25T01:15:00;20.43;;;9.80;;
18822;SDS011;9540;51.550;7.980;2023-04-25T01:17:29;21.37;;;9.83;;
18822;SDS011;9540;51.550;7.980;2023-04-25T01:19:56;22.07;;;9.20;;
18822;SDS011;9540;51.550;7.980;2023-04-25T01:22:25;22.37;;;9.87;;
18822;SDS011;9540;51.550;7.980;2023-04-25T01:24:52;25.53;;;9.93;;
18822;SDS011;9540;51.550;7.980;2023-04-25T01:27:19;22.60;;;10.53;;
18822;SDS011;9540;51.550;7.980;2023-04-25T01:29:48;24.77;;;10.83;;
18822;SDS011;9540;51.550;7.980;2023-04-25T01:32:16;20.07;;;10.20;;
18822;SDS011;9540;51.550;7.980;2023-04-25T01:34:44;27.17;;;11.17;;
18822;SDS011;9540;51.550;7.980;2023-04-25T01:37:12;19.50;;;11.23;;
18822;SDS011;9540;51.550;7.980;2023-04-25T01:39:40;23.90;;;10.13;;
18822;SDS011;9540;51.550;7.980;2023-04-25T01:42:07;24.93;;;9.93;;
18822;SDS011;9540;51.550;7.980;2023-04-25T01:44:34;19.47;;;10.63;;
18822;SDS011;9540;51.550;7.980;2023-04-25T01:47:02;25.63;;;11.43;;
18822;SDS011;9540;51.550;7.980;2023-04-25T01:49:29;22.33;;;11.17;;
18822;SDS011;9540;51.550;7.980;2023-04-25T01:51:56;24.53;;;10.93;;
18822;SDS011;9540;51.550;7.980;2023-04-25T01:54:23;26.77;;;11.37;;
18822;SDS011;9540;51.550;7.980;2023-04-25T01:56:52;30.37;;;12.73;;
18822;SDS011;9540;51.550;7.980;2023-04-25T01:59:19;24.40;;;11.70;;
18822;SDS011;9540;51.550;7.980;2023-04-25T02:01:47;27.23;;;13.83;;
18822;SDS011;9540;51.550;7.980;2023-04-25T02:04:14;21.67;;;12.77;;
18822;SDS011;9540;51.550;7.980;2023-04-25T02:06:41;27.70;;;13.60;;
18822;SDS011;9540;51.550;7.980;2023-04-25T02:09:08;27.00;;;13.13;;
18822;SDS011;9540;51.550;7.980;2023-04-25T02:11:35;28.27;;;13.43;;
18822;SDS011;9540;51.550;7.980;2023-04-25T02:14:03;30.27;;;13.47;;
18822;SDS011;9540;51.550;7.980;2023-04-25T02:16:30;27.97;;;14.53;;
18822;SDS011;9540;51.550;7.980;2023-04-25T02:18:58;29.07;;;14.53;;
18822;SDS011;9540;51.550;7.980;2023-04-25T02:21:25;29.57;;;14.17;;
18822;SDS011;9540;51.550;7.980;2023-04-25T02:23:52;32.33;;;14.00;;
18822;SDS011;9540;51.550;7.980;2023-04-25T02:26:19;32.33;;;13.83;;
18822;SDS011;9540;51.550;7.980;2023-04-25T02:28:48;35.50;;;15.60;;
18822;SDS011;9540;51.550;7.980;2023-04-25T02:31:18;29.70;;;14.83;;
18822;SDS011;9540;51.550;7.980;2023-04-25T02:33:45;29.23;;;14.27;;
18822;SDS011;9540;51.550;7.980;2023-04-25T02:36:13;31.20;;;15.47;;
18822;SDS011;9540;51.550;7.980;2023-04-25T02:38:41;35.73;;;14.77;;
18822;SDS011;9540;51.550;7.980;2023-04-25T02:41:08;36.50;;;16.23;;
18822;SDS011;9540;51.550;7.980;2023-04-25T02:43:35;32.93;;;15.40;;
18822;SDS011;9540;51.550;7.980;2023-04-25T02:46:02;34.27;;;14.73;;
18822;SDS011;9540;51.550;7.980;2023-04-25T02:48:31;33.73;;;14.77;;
18822;SDS011;9540;51.550;7.980;2023-04-25T02:50:58;34.23;;;15.43;;
18822;SDS011;9540;51.550;7.980;2023-04-25T02:53:25;31.27;;;16.20;;
18822;SDS011;9540;51.550;7.980;2023-04-25T02:55:52;32.43;;;15.33;;
18822;SDS011;9540;51.550;7.980;2023-04-25T02:58:19;28.73;;;15.07;;
18822;SDS011;9540;51.550;7.980;2023-04-25T03:00:46;37.53;;;15.60;;
18822;SDS011;9540;51.550;7.980;2023-04-25T03:03:13;39.87;;;16.63;;
18822;SDS011;9540;51.550;7.980;2023-04-25T03:05:44;36.13;;;16.10;;
18822;SDS011;9540;51.550;7.980;2023-04-25T03:08:11;38.10;;;15.20;;
18822;SDS011;9540;51.550;7.980;2023-04-25T03:10:39;37.23;;;14.10;;
18822;SDS011;9540;51.550;7.980;2023-04-25T03:13:06;34.00;;;16.53;;
18822;SDS011;9540;51.550;7.980;2023-04-25T03:15:33;34.87;;;15.23;;
18822;SDS011;9540;51.550;7.980;2023-04-25T03:18:01;35.20;;;16.13;;
18822;SDS011;9540;51.550;7.980;2023-04-25T03:20:28;37.73;;;15.80;;
18822;SDS011;9540;51.550;7.980;2023-04-25T03:22:56;37.40;;;14.73;;
18822;SDS011;9540;51.550;7.980;2023-04-25T03:25:24;39.07;;;16.87;;
18822;SDS011;9540;51.550;7.980;2023-04-25T03:27:51;38.43;;;15.50;;
18822;SDS011;9540;51.550;7.980;2023-04-25T03:30:18;43.37;;;16.20;;
18822;SDS011;9540;51.550;7.980;2023-04-25T03:32:45;44.73;;;17.70;;
18822;SDS011;9540;51.550;7.980;2023-04-25T03:35:12;45.00;;;16.80;;
18822;SDS011;9540;51.550;7.980;2023-04-25T03:37:39;49.20;;;16.53;;
18822;SDS011;9540;51.550;7.980;2023-04-25T03:40:11;44.07;;;17.37;;
18822;SDS011;9540;51.550;7.980;2023-04-25T03:42:39;51.03;;;17.10;;
18822;SDS011;9540;51.550;7.980;2023-04-25T03:45:06;44.77;;;16.70;;
18822;SDS011;9540;51.550;7.980;2023-04-25T03:47:34;52.70;;;16.90;;
18822;SDS011;9540;51.550;7.980;2023-04-25T03:50:01;41.10;;;16.10;;
18822;SDS011;9540;51.550;7.980;2023-04-25T03:52:28;48.40;;;16.80;;
18822;SDS011;9540;51.550;7.980;2023-04-25T03:54:55;40.23;;;15.50;;
18822;SDS011;9540;51.550;7.980;2023-04-25T03:57:27;47.97;;;15.33;;
18822;SDS011;9540;51.550;7.980;2023-04-25T03:59:54;42.40;;;14.90;;
18822;SDS011;9540;51.550;7.980;2023-04-25T04:02:21;48.57;;;14.97;;
18822;SDS011;9540;51.550;7.980;2023-04-25T04:04:48;43.63;;;15.13;;
18822;SDS011;9540;51.550;7.980;2023-04-25T04:07:16;44.53;;;14.67;;
18822;SDS011;9540;51.550;7.980;2023-04-25T04:09:43;42.17;;;13.50;;
18822;SDS011;9540;51.550;7.980;2023-04-25T04:12:10;38.50;;;13.70;;
18822;SDS011;9540;51.550;7.980;2023-04-25T04:14:38;50.53;;;14.13;;
18822;SDS011;9540;51.550;7.980;2023-04-25T04:17:06;41.00;;;14.03;;
18822;SDS011;9540;51.550;7.980;2023-04-25T04:19:33;43.53;;;14.00;;
18822;SDS011;9540;51.550;7.980;2023-04-25T04:22:01;50.50;;;13.43;;
18822;SDS011;9540;51.550;7.980;2023-04-25T04:24:28;46.53;;;13.30;;
18822;SDS011;9540;51.550;7.980;2023-04-25T04:26:55;37.93;;;14.73;;
18822;SDS011;9540;51.550;7.980;2023-04-25T04:29:22;34.47;;;12.33;;
18822;SDS011;9540;51.550;7.980;2023-04-25T04:31:51;46.87;;;13.83;;
18822;SDS011;9540;51.550;7.980;2023-04-25T04:34:18;46.03;;;14.10;;
18822;SDS011;9540;51.550;7.980;2023-04-25T04:36:45;47.10;;;13.70;;
18822;SDS011;9540;51.550;7.980;2023-04-25T04:39:13;52.70;;;14.33;;
18822;SDS011;9540;51.550;7.980;2023-04-25T04:41:40;48.70;;;14.30;;
18822;SDS011;9540;51.550;7.980;2023-04-25T04:44:07;38.87;;;13.93;;
18822;SDS011;9540;51.550;7.980;2023-04-25T04:46:35;47.10;;;13.67;;
18822;SDS011;9540;51.550;7.980;2023-04-25T04:49:08;42.47;;;14.13;;
18822;SDS011;9540;51.550;7.980;2023-04-25T04:51:35;48.37;;;14.73;;
18822;SDS011;9540;51.550;7.980;2023-04-25T04:54:03;46.83;;;16.10;;
18822;SDS011;9540;51.550;7.980;2023-04-25T04:56:30;38.93;;;14.77;;
18822;SDS011;9540;51.550;7.980;2023-04-25T04:58:58;54.27;;;15.80;;
18822;SDS011;9540;51.550;7.980;2023-04-25T05:01:26;54.40;;;13.90;;
18822;SDS011;9540;51.550;7.980;2023-04-25T05:03:54;53.03;;;13.60;;
18822;SDS011;9540;51.550;7.980;2023-04-25T05:06:27;47.27;;;13.33;;
18822;SDS011;9540;51.550;7.980;2023-04-25T05:08:55;41.43;;;12.43;;
18822;SDS011;9540;51.550;7.980;2023-04-25T05:11:22;66.13;;;14.20;;
18822;SDS011;9540;51.550;7.980;2023-04-25T05:13:51;53.80;;;13.10;;
18822;SDS011;9540;51.550;7.980;2023-04-25T05:16:19;43.73;;;12.40;;
18822;SDS011;9540;51.550;7.980;2023-04-25T05:18:46;34.23;;;12.90;;
18822;SDS011;9540;51.550;7.980;2023-04-25T05:21:13;35.20;;;12.00;;
18822;SDS011;9540;51.550;7.980;2023-04-25T05:23:42;42.83;;;13.87;;
18822;SDS011;9540;51.550;7.980;2023-04-25T05:26:10;36.07;;;12.33;;
18822;SDS011;9540;51.550;7.980;2023-04-25T05:28:39;42.60;;;13.43;;
18822;SDS011;9540;51.550;7.980;2023-04-25T05:31:06;46.03;;;13.70;;
18822;SDS011;9540;51.550;7.980;2023-04-25T05:33:33;42.23;;;13.13;;
18822;SDS011;9540;51.550;7.980;2023-04-25T05:36:00;48.60;;;14.73;;
18822;SDS011;9540;51.550;7.980;2023-04-25T05:38:27;52.17;;;14.93;;
18822;SDS011;9540;51.550;7.980;2023-04-25T05:40:56;48.67;;;14.03;;
18822;SDS011;9540;51.550;7.980;2023-04-25T05:43:26;45.63;;;14.33;;
18822;SDS011;9540;51.550;7.980;2023-04-25T05:45:53;41.70;;;13.13;;
18822;SDS011;9540;51.550;7.980;2023-04-25T05:48:20;38.90;;;12.83;;
18822;SDS011;9540;51.550;7.980;2023-04-25T05:50:47;42.60;;;12.00;;
18822;SDS011;9540;51.550;7.980;2023-04-25T05:53:14;38.07;;;12.30;;
18822;SDS011;9540;51.550;7.980;2023-04-25T05:55:41;39.03;;;12.20;;
18822;SDS011;9540;51.550;7.980;2023-04-25T05:58:10;40.30;;;10.83;;
18822;SDS011;9540;51.550;7.980;2023-04-25T06:00:37;46.27;;;11.47;;
18822;SDS011;9540;51.550;7.980;2023-04-25T06:03:06;44.23;;;13.37;;
18822;SDS011;9540;51.550;7.980;2023-04-25T06:05:34;35.60;;;11.07;;
18822;SDS011;9540;51.550;7.980;2023-04-25T06:08:01;30.57;;;9.63;;
18822;SDS011;9540;51.550;7.980;2023-04-25T06:10:29;33.07;;;9.47;;
18822;SDS011;9540;51.550;7.980;2023-04-25T06:12:56;27.70;;;10.00;;
18822;SDS011;9540;51.550;7.980;2023-04-25T06:15:24;28.80;;;9.10;;
18822;SDS011;9540;51.550;7.980;2023-04-25T06:17:51;30.00;;;7.97;;
18822;SDS011;9540;51.550;7.980;2023-04-25T06:20:19;32.07;;;8.97;;
18822;SDS011;9540;51.550;7.980;2023-04-25T06:22:48;31.03;;;9.07;;
18822;SDS011;9540;51.550;7.980;2023-04-25T06:25:15;34.80;;;9.40;;
18822;SDS011;9540;51.550;7.980;2023-04-25T06:27:42;33.90;;;8.20;;
18822;SDS011;9540;51.550;7.980;2023-04-25T06:30:10;32.72;;;9.02;;
18822;SDS011;9540;51.550;7.980;2023-04-25T06:32:39;35.55;;;7.80;;
18822;SDS011;9540;51.550;7.980;2023-04-25T06:35:06;28.88;;;8.25;;
18822;SDS011;9540;51.550;7.980;2023-04-25T06:37:33;28.83;;;8.50;;
18822;SDS011;9540;51.550;7.980;2023-04-25T06:40:01;25.02;;;8.52;;
18822;SDS011;9540;51.550;7.980;2023-04-25T06:42:28;20.95;;;6.53;;
18822;SDS011;9540;51.550;7.980;2023-04-25T06:44:55;28.35;;;8.73;;
18822;SDS011;9540;51.550;7.980;2023-04-25T06:47:22;24.00;;;7.90;;
18822;SDS011;9540;51.550;7.980;2023-04-25T06:49:51;23.13;;;6.88;;
18822;SDS011;9540;51.550;7.980;2023-04-25T06:52:18;25.33;;;7.40;;
18822;SDS011;9540;51.550;7.980;2023-04-25T06:54:45;30.13;;;7.25;;
18822;SDS011;9540;51.550;7.980;2023-04-25T06:57:12;28.40;;;6.10;;
18822;SDS011;9540;51.550;7.980;2023-04-25T06:59:39;25.50;;;6.85;;
18822;SDS011;9540;51.550;7.980;2023-04-25T07:02:07;21.58;;;7.13;;
18822;SDS011;9540;51.550;7.980;2023-04-25T07:04:34;23.15;;;7.53;;
18822;SDS011;9540;51.550;7.980;2023-04-25T07:07:03;26.85;;;7.22;;
18822;SDS011;9540;51.550;7.980;2023-04-25T07:09:30;21.95;;;6.13;;
18822;SDS011;9540;51.550;7.980;2023-04-25T07:11:58;27.73;;;6.80;;
18822;SDS011;9540;51.550;7.980;2023-04-25T07:14:26;26.15;;;6.35;;
18822;SDS011;9540;51.550;7.980;2023-04-25T07:16:53;30.50;;;6.40;;
18822;SDS011;9540;51.550;7.980;2023-04-25T07:19:21;18.45;;;5.85;;
18822;SDS011;9540;51.550;7.980;2023-04-25T07:21:51;21.88;;;4.57;;
18822;SDS011;9540;51.550;7.980;2023-04-25T07:24:20;17.02;;;6.32;;
18822;SDS011;9540;51.550;7.980;2023-04-25T07:26:47;19.52;;;5.72;;
18822;SDS011;9540;51.550;7.980;2023-04-25T07:29:14;19.75;;;6.25;;
18822;SDS011;9540;51.550;7.980;2023-04-25T07:31:41;22.60;;;5.20;;
18822;SDS011;9540;51.550;7.980;2023-04-25T07:34:08;15.05;;;4.65;;
18822;SDS011;9540;51.550;7.980;2023-04-25T07:36:35;19.33;;;5.68;;
18822;SDS011;9540;51.550;7.980;2023-04-25T07:39:02;20.85;;;4.95;;
18822;SDS011;9540;51.550;7.980;2023-04-25T07:41:31;18.23;;;5.20;;
18822;SDS011;9540;51.550;7.980;2023-04-25T07:43:58;20.35;;;4.63;;
18822;SDS011;9540;51.550;7.980;2023-04-25T07:46:25;21.13;;;6.50;;
18822;SDS011;9540;51.550;7.980;2023-04-25T07:48:52;19.27;;;4.75;;
18822;SDS011;9540;51.550;7.980;2023-04-25T07:51:19;22.73;;;5.90;;
18822;SDS011;9540;51.550;7.980;2023-04-25T07:53:47;26.48;;;6.18;;
18822;SDS011;9540;51.550;7.980;2023-04-25T07:56:14;16.77;;;5.18;;
18822;SDS011;9540;51.550;7.980;2023-04-25T07:58:43;32.78;;;6.97;;
18822;SDS011;9540;51.550;7.980;2023-04-25T08:01:10;15.25;;;5.57;;
18822;SDS011;9540;51.550;7.980;2023-04-25T08:03:37;18.52;;;5.15;;
18822;SDS011;9540;51.550;7.980;2023-04-25T08:06:04;15.05;;;4.35;;
18822;SDS011;9540;51.550;7.980;2023-04-25T08:08:32;17.27;;;4.65;;
18822;SDS011;9540;51.550;7.980;2023-04-25T08:10:59;16.30;;;4.93;;
18822;SDS011;9540;51.550;7.980;2023-04-25T08:13:26;15.88;;;5.20;;
18822;SDS011;9540;51.550;7.980;2023-04-25T08:15:57;16.90;;;3.67;;
18822;SDS011;9540;51.550;7.980;2023-04-25T08:18:25;17.35;;;3.45;;
18822;SDS011;9540;51.550;7.980;2023-04-25T08:20:52;12.73;;;4.15;;
18822;SDS011;9540;51.550;7.980;2023-04-25T08:23:19;12.73;;;3.55;;
18822;SDS011;9540;51.550;7.980;2023-04-25T08:25:46;6.95;;;2.80;;
18822;SDS011;9540;51.550;7.980;2023-04-25T08:28:13;11.23;;;3.70;;
18822;SDS011;9540;51.550;7.980;2023-04-25T08:30:41;19.60;;;4.25;;
18822;SDS011;9540;51.550;7.980;2023-04-25T08:33:09;15.88;;;3.58;;
18822;SDS011;9540;51.550;7.980;2023-04-25T08:35:37;12.23;;;2.80;;
18822;SDS011;9540;51.550;7.980;2023-04-25T08:38:04;13.32;;;3.38;;
18822;SDS011;9540;51.550;7.980;2023-04-25T08:40:31;10.48;;;2.97;;
18822;SDS011;9540;51.550;7.980;2023-04-25T08:43:04;14.43;;;3.75;;
18822;SDS011;9540;51.550;7.980;2023-04-25T08:45:36;11.30;;;2.95;;
18822;SDS011;9540;51.550;7.980;2023-04-25T08:48:07;13.88;;;2.85;;
18822;SDS011;9540;51.550;7.980;2023-04-25T08:50:37;11.00;;;3.50;;
18822;SDS011;9540;51.550;7.980;2023-04-25T08:53:05;9.82;;;3.08;;
18822;SDS011;9540;51.550;7.980;2023-04-25T08:55:36;9.82;;;3.08;;
18822;SDS011;9540;51.550;7.980;2023-04-25T08:58:07;18.60;;;3.33;;
18822;SDS011;9540;51.550;7.980;2023-04-25T09:00:36;11.85;;;3.75;;
18822;SDS011;9540;51.550;7.980;2023-04-25T09:03:03;10.65;;;3.30;;
18822;SDS011;9540;51.550;7.980;2023-04-25T09:05:32;10.35;;;2.70;;
18822;SDS011;9540;51.550;7.980;2023-04-25T09:08:00;12.35;;;2.47;;
18822;SDS011;9540;51.550;7.980;2023-04-25T09:10:28;10.65;;;3.25;;
18822;SDS011;9540;51.550;7.980;2023-04-25T09:13:02;14.02;;;2.90;;
18822;SDS011;9540;51.550;7.980;2023-04-25T09:15:31;12.48;;;3.63;;
18822;SDS011;9540;51.550;7.980;2023-04-25T09:17:58;12.80;;;3.55;;
18822;SDS011;9540;51.550;7.980;2023-04-25T09:20:26;10.70;;;3.28;;
18822;SDS011;9540;51.550;7.980;2023-04-25T09:23:05;8.45;;;2.53;;
18822;SDS011;9540;51.550;7.980;2023-04-25T09:25:35;12.57;;;2.67;;
18822;SDS011;9540;51.550;7.980;2023-04-25T09:28:04;12.95;;;2.60;;
18822;SDS011;9540;51.550;7.980;2023-04-25T09:30:32;10.48;;;3.05;;
18822;SDS011;9540;51.550;7.980;2023-04-25T09:33:04;10.93;;;3.17;;
18822;SDS011;9540;51.550;7.980;2023-04-25T09:35:35;8.90;;;2.33;;
18822;SDS011;9540;51.550;7.980;2023-04-25T09:38:08;8.43;;;2.30;;
18822;SDS011;9540;51.550;7.980;2023-04-25T09:40:39;8.20;;;2.70;;
18822;SDS011;9540;51.550;7.980;2023-04-25T09:43:08;6.15;;;2.20;;
18822;SDS011;9540;51.550;7.980;2023-04-25T09:45:43;9.43;;;2.50;;
18822;SDS011;9540;51.550;7.980;2023-04-25T09:48:15;10.48;;;2.40;;
18822;SDS011;9540;51.550;7.980;2023-04-25T09:50:45;4.90;;;2.10;;
18822;SDS011;9540;51.550;7.980;2023-04-25T09:53:13;7.53;;;2.47;;
18822;SDS011;9540;51.550;7.980;2023-04-25T09:55:40;8.60;;;2.90;;
18822;SDS011;9540;51.550;7.980;2023-04-25T09:58:10;11.48;;;2.83;;
18822;SDS011;9540;51.550;7.980;2023-04-25T10:00:38;11.10;;;2.92;;
18822;SDS011;9540;51.550;7.980;2023-04-25T10:03:07;8.85;;;2.25;;
18822;SDS011;9540;51.550;7.980;2023-04-25T10:05:35;6.00;;;2.63;;
18822;SDS011;9540;51.550;7.980;2023-04-25T10:08:03;9.65;;;3.17;;
18822;SDS011;9540;51.550;7.980;2023-04-25T10:10:33;6.55;;;2.70;;
18822;SDS011;9540;51.550;7.980;2023-04-25T10:13:04;17.90;;;3.08;;
18822;SDS011;9540;51.550;7.980;2023-04-25T10:15:34;13.88;;;2.50;;
18822;SDS011;9540;51.550;7.980;2023-04-25T10:18:02;17.13;;;2.90;;
18822;SDS011;9540;51.550;7.980;2023-04-25T10:20:30;6.10;;;2.35;;
18822;SDS011;9540;51.550;7.980;2023-04-25T10:22:58;11.55;;;2.22;;
18822;SDS011;9540;51.550;7.980;2023-04-25T10:25:34;7.30;;;2.13;;
18822;SDS011;9540;51.550;7.980;2023-04-25T10:28:03;6.95;;;2.28;;
18822;SDS011;9540;51.550;7.980;2023-04-25T10:30:31;7.30;;;2.15;;
18822;SDS011;9540;51.550;7.980;2023-04-25T10:32:58;5.35;;;2.00;;
18822;SDS011;9540;51.550;7.980;2023-04-25T10:35:26;10.15;;;3.10;;
18822;SDS011;9540;51.550;7.980;2023-04-25T10:37:58;6.40;;;2.13;;
18822;SDS011;9540;51.550;7.980;2023-04-25T10:40:28;6.22;;;2.58;;
18822;SDS011;9540;51.550;7.980;2023-04-25T10:43:32;8.35;;;2.35;;
18822;SDS011;9540;51.550;7.980;2023-04-25T10:46:01;4.40;;;1.85;;
18822;SDS011;9540;51.550;7.980;2023-04-25T10:48:28;8.98;;;2.35;;
18822;SDS011;9540;51.550;7.980;2023-04-25T10:51:08;6.95;;;2.13;;
18822;SDS011;9540;51.550;7.980;2023-04-25T10:53:36;8.95;;;1.80;;
18822;SDS011;9540;51.550;7.980;2023-04-25T10:56:09;11.60;;;2.47;;
18822;SDS011;9540;51.550;7.980;2023-04-25T10:58:42;8.02;;;2.30;;
18822;SDS011;9540;51.550;7.980;2023-04-25T11:01:10;8.25;;;2.50;;
18822;SDS011;9540;51.550;7.980;2023-04-25T11:03:43;7.35;;;2.30;;
18822;SDS011;9540;51.550;7.980;2023-04-25T11:06:16;7.88;;;2.20;;
18822;SDS011;9540;51.550;7.980;2023-04-25T11:08:49;8.15;;;2.03;;
18822;SDS011;9540;51.550;7.980;2023-04-25T11:11:17;7.13;;;1.92;;
18822;SDS011;9540;51.550;7.980;2023-04-25T11:13:48;5.82;;;2.10;;
18822;SDS011;9540;51.550;7.980;2023-04-25T11:16:16;6.32;;;2.50;;
18822;SDS011;9540;51.550;7.980;2023-04-25T11:18:44;7.72;;;2.40;;
18822;SDS011;9540;51.550;7.980;2023-04-25T11:21:11;9.90;;;2.17;;
18822;SDS011;9540;51.550;7.980;2023-04-25T11:23:39;7.72;;;2.08;;
18822;SDS011;9540;51.550;7.980;2023-04-25T11:26:06;8.90;;;2.58;;
18822;SDS011;9540;51.550;7.980;2023-04-25T11:28:33;7.65;;;2.00;;
18822;SDS011;9540;51.550;7.980;2023-04-25T11:31:03;5.68;;;2.05;;
18822;SDS011;9540;51.550;7.980;2023-04-25T11:33:31;5.28;;;2.20;;
18822;SDS011;9540;51.550;7.980;2023-04-25T11:35:58;4.57;;;1.80;;
18822;SDS011;9540;51.550;7.980;2023-04-25T11:38:25;9.18;;;2.53;;
18822;SDS011;9540;51.550;7.980;2023-04-25T11:40:53;8.48;;;2.10;;
18822;SDS011;9540;51.550;7.980;2023-04-25T11:43:20;8.88;;;2.58;;
18822;SDS011;9540;51.550;7.980;2023-04-25T11:45:48;8.57;;;2.35;;
18822;SDS011;9540;51.550;7.980;2023-04-25T11:48:17;6.35;;;2.53;;
18822;SDS011;9540;51.550;7.980;2023-04-25T11:50:44;14.95;;;2.72;;
18822;SDS011;9540;51.550;7.980;2023-04-25T11:53:11;12.60;;;2.55;;
18822;SDS011;9540;51.550;7.980;2023-04-25T11:55:38;8.82;;;2.30;;
18822;SDS011;9540;51.550;7.980;2023-04-25T11:58:09;5.47;;;2.30;;
18822;SDS011;9540;51.550;7.980;2023-04-25T12:00:36;7.93;;;1.75;;
18822;SDS011;9540;51.550;7.980;2023-04-25T12:03:03;6.40;;;1.73;;
18822;SDS011;9540;51.550;7.980;2023-04-25T12:05:31;5.63;;;1.70;;
18822;SDS011;9540;51.550;7.980;2023-04-25T12:08:11;4.72;;;2.20;;
18822;SDS011;9540;51.550;7.980;2023-04-25T12:10:39;4.63;;;1.90;;
18822;SDS011;9540;51.550;7.980;2023-04-25T12:15:53;7.40;;;2.17;;
18822;SDS011;9540;51.550;7.980;2023-04-25T12:18:22;6.28;;;2.20;;
18822;SDS011;9540;51.550;7.980;2023-04-25T12:20:53;6.28;;;2.30;;
18822;SDS011;9540;51.550;7.980;2023-04-25T12:23:24;4.47;;;2.45;;
18822;SDS011;9540;51.550;7.980;2023-04-25T12:25:53;3.58;;;2.60;;
18822;SDS011;9540;51.550;7.980;2023-04-25T12:28:21;9.23;;;3.20;;
18822;SDS011;9540;51.550;7.980;2023-04-25T12:30:53;2.78;;;2.00;;
18822;SDS011;9540;51.550;7.980;2023-04-25T12:33:24;6.80;;;2.10;;
18822;SDS011;9540;51.550;7.980;2023-04-25T12:35:54;2.42;;;1.23;;
18822;SDS011;9540;51.550;7.980;2023-04-25T12:38:23;7.30;;;1.88;;
18822;SDS011;9540;51.550;7.980;2023-04-25T12:40:50;3.17;;;1.95;;
18822;SDS011;9540;51.550;7.980;2023-04-25T12:43:17;4.28;;;1.45;;
18822;SDS011;9540;51.550;7.980;2023-04-25T12:45:45;5.20;;;2.47;;
18822;SDS011;9540;51.550;7.980;2023-04-25T12:48:14;4.22;;;1.60;;
18822;SDS011;9540;51.550;7.980;2023-04-25T12:50:41;2.92;;;1.27;;
18822;SDS011;9540;51.550;7.980;2023-04-25T12:53:11;3.35;;;1.25;;
18822;SDS011;9540;51.550;7.980;2023-04-25T12:55:38;1.88;;;1.27;;
18822;SDS011;9540;51.550;7.980;2023-04-25T12:58:05;5.82;;;1.48;;
18822;SDS011;9540;51.550;7.980;2023-04-25T13:00:32;1.75;;;1.30;;
18822;SDS011;9540;51.550;7.980;2023-04-25T13:02:59;4.90;;;1.58;;
18822;SDS011;9540;51.550;7.980;2023-04-25T13:05:27;11.60;;;2.83;;
18822;SDS011;9540;51.550;7.980;2023-04-25T13:07:55;14.25;;;2.80;;
18822;SDS011;9540;51.550;7.980;2023-04-25T13:10:24;9.00;;;2.33;;
18822;SDS011;9540;51.550;7.980;2023-04-25T13:12:51;6.75;;;1.90;;
18822;SDS011;9540;51.550;7.980;2023-04-25T13:15:18;8.55;;;2.15;;
18822;SDS011;9540;51.550;7.980;2023-04-25T13:17:45;4.45;;;2.38;;
18822;SDS011;9540;51.550;7.980;2023-04-25T13:20:15;5.32;;;1.85;;
18822;SDS011;9540;51.550;7.980;2023-04-25T13:22:44;9.55;;;1.98;;
18822;SDS011;9540;51.550;7.980;2023-04-25T13:25:11;5.93;;;1.85;;
18822;SDS011;9540;51.550;7.980;2023-04-25T13:27:40;3.90;;;1.92;;
18822;SDS011;9540;51.550;7.980;2023-04-25T13:30:09;3.55;;;1.70;;
18822;SDS011;9540;51.550;7.980;2023-04-25T13:32:37;4.43;;;1.83;;
18822;SDS011;9540;51.550;7.980;2023-04-25T13:35:05;5.70;;;2.05;;
18822;SDS011;9540;51.550;7.980;2023-04-25T13:37:33;3.25;;;1.50;;
18822;SDS011;9540;51.550;7.980;2023-04-25T13:40:01;6.05;;;1.80;;
18822;SDS011;9540;51.550;7.980;2023-04-25T13:42:30;8.25;;;2.35;;
18822;SDS011;9540;51.550;7.980;2023-04-25T13:44:58;5.72;;;1.48;;
18822;SDS011;9540;51.550;7.980;2023-04-25T13:47:26;8.90;;;2.03;;
18822;SDS011;9540;51.550;7.980;2023-04-25T13:49:53;5.78;;;2.53;;
18822;SDS011;9540;51.550;7.980;2023-04-25T13:52:20;8.98;;;2.05;;
18822;SDS011;9540;51.550;7.980;2023-04-25T13:54:49;6.85;;;1.92;;
18822;SDS011;9540;51.550;7.980;2023-04-25T13:57:17;5.80;;;1.40;;
18822;SDS011;9540;51.550;7.980;2023-04-25T13:59:44;5.63;;;2.10;;
18822;SDS011;9540;51.550;7.980;2023-04-25T14:02:13;4.78;;;1.58;;
18822;SDS011;9540;51.550;7.980;2023-04-25T14:04:40;8.43;;;1.88;;
18822;SDS011;9540;51.550;7.980;2023-04-25T14:07:08;6.80;;;1.98;;
18822;SDS011;9540;51.550;7.980;2023-04-25T14:09:36;8.00;;;1.95;;
18822;SDS011;9540;51.550;7.980;2023-04-25T14:12:03;4.15;;;1.67;;
18822;SDS011;9540;51.550;7.980;2023-04-25T14:14:31;6.72;;;1.92;;
18822;SDS011;9540;51.550;7.980;2023-04-25T14:16:58;3.40;;;1.55;;
18822;SDS011;9540;51.550;7.980;2023-04-25T14:19:26;4.18;;;1.50;;
18822;SDS011;9540;51.550;7.980;2023-04-25T14:21:54;5.53;;;1.60;;
18822;SDS011;9540;51.550;7.980;2023-04-25T14:24:21;5.15;;;1.90;;
18822;SDS011;9540;51.550;7.980;2023-04-25T14:26:48;5.30;;;1.52;;
18822;SDS011;9540;51.550;7.980;2023-04-25T14:29:15;9.10;;;1.52;;
18822;SDS011;9540;51.550;7.980;2023-04-25T14:31:42;3.50;;;1.73;;
18822;SDS011;9540;51.550;7.980;2023-04-25T14:34:10;4.25;;;1.63;;
18822;SDS011;9540;51.550;7.980;2023-04-25T14:36:38;2.78;;;2.00;;
18822;SDS011;9540;51.550;7.980;2023-04-25T14:39:06;4.30;;;2.35;;
18822;SDS011;9540;51.550;7.980;2023-04-25T14:41:33;3.97;;;1.75;;
18822;SDS011;9540;51.550;7.980;2023-04-25T14:44:00;3.90;;;1.70;;
18822;SDS011;9540;51.550;7.980;2023-04-25T14:46:28;6.10;;;1.52;;
18822;SDS011;9540;51.550;7.980;2023-04-25T14:48:55;3.83;;;1.52;;
18822;SDS011;9540;51.550;7.980;2023-04-25T14:51:23;5.38;;;1.83;;
18822;SDS011;9540;51.550;7.980;2023-04-25T14:53:52;2.13;;;1.80;;
18822;SDS011;9540;51.550;7.980;2023-04-25T14:56:20;3.42;;;1.63;;